sensor_id;sensor_type;location;lat;lon;timestamp;P1;durP1;ratioP1;P2;durP2;ratioP2
5333;SDS011;2689;50.954;7.116;2023-04-24T00:01:12;1.20;;;0.97;;
5333;SDS011;2689;50.954;7.116;2023-04-24T00:03:40;4.90;;;1.10;;
5333;SDS011;2689;50.954;7.116;2023-04-24T00:06:07;2.60;;;1.07;;
5333;SDS011;2689;50.954;7.116;2023-04-24T00:08:34;1.40;;;1.00;;
5333;SDS011;2689;50.954;7.116;2023-04-24T00:11:01;2.13;;;1.20;;
5333;SDS011;2689;50.954;7.116;2023-04-24T00:13:28;1.60;;;0.97;;
5333;SDS011;2689;50.954;7.116;2023-04-24T00:15:56;1.30;;;1.00;;
5333;SDS011;2689;50.954;7.116;2023-04-24T00:18:23;2.00;;;1.17;;
5333;SDS011;2689;50.954;7.116;2023-04-24T00:20:50;6.23;;;1.50;;
5333;SDS011;2689;50.954;7.116;2023-04-24T00:23:17;2.97;;;1.27;;
5333;SDS011;2689;50.954;7.116;2023-04-24T00:25:43;1.50;;;1.10;;
5333;SDS011;2689;50.954;7.116;2023-04-24T00:28:10;1.43;;;1.20;;
5333;SDS011;2689;50.954;7.116;2023-04-24T00:30:37;2.50;;;1.20;;
5333;SDS011;2689;50.954;7.116;2023-04-24T00:33:05;1.40;;;0.90;;
5333;SDS011;2689;50.954;7.116;2023-04-24T00:35:32;1.70;;;1.30;;
5333;SDS011;2689;50.954;7.116;2023-04-24T00:37:59;1.60;;;1.37;;
5333;SDS011;2689;50.954;7.116;2023-04-24T00:40:27;1.80;;;1.30;;
5333;SDS011;2689;50.954;7.116;2023-04-24T00:42:54;1.60;;;1.40;;
5333;SDS011;2689;50.954;7.116;2023-04-24T00:45:21;2.87;;;1.50;;
5333;SDS011;2689;50.954;7.116;2023-04-24T00:47:48;1.70;;;1.40;;
5333;SDS011;2689;50.954;7.116;2023-04-24T00:50:17;2.17;;;1.33;;
5333;SDS011;2689;50.954;7.116;2023-04-24T00:52:44;2.37;;;1.30;;
5333;SDS011;2689;50.954;7.116;2023-04-24T00:55:11;1.97;;;1.50;;
5333;SDS011;2689;50.954;7.116;2023-04-24T00:57:38;2.60;;;1.40;;
5333;SDS011;2689;50.954;7.116;2023-04-24T01:00:06;1.80;;;1.30;;
5333;SDS011;2689;50.954;7.116;2023-04-24T01:02:36;1.70;;;1.33;;
5333;SDS011;2689;50.954;7.116;2023-04-24T01:05:05;1.87;;;1.30;;
5333;SDS011;2689;50.954;7.116;2023-04-24T01:07:34;1.50;;;1.30;;
5333;SDS011;2689;50.954;7.116;2023-04-24T01:10:02;1.77;;;1.43;;
5333;SDS011;2689;50.954;7.116;2023-04-24T01:12:30;2.60;;;1.20;;
5333;SDS011;2689;50.954;7.116;2023-04-24T01:14:57;1.63;;;1.33;;
5333;SDS011;2689;50.954;7.116;2023-04-24T01:17:24;1.67;;;1.20;;
5333;SDS011;2689;50.954;7.116;2023-04-24T01:19:51;2.10;;;1.40;;
5333;SDS011;2689;50.954;7.116;2023-04-24T01:22:20;1.73;;;1.40;;
5333;SDS011;2689;50.954;7.116;2023-04-24T01:24:47;2.33;;;1.00;;
5333;SDS011;2689;50.954;7.116;2023-04-24T01:27:14;1.90;;;1.40;;
5333;SDS011;2689;50.954;7.116;2023-04-24T01:29:44;1.50;;;1.20;;
5333;SDS011;2689;50.954;7.116;2023-04-24T01:32:12;3.30;;;1.50;;
5333;SDS011;2689;50.954;7.116;2023-04-24T01:34:39;2.60;;;1.37;;
5333;SDS011;2689;50.954;7.116;2023-04-24T01:37:07;2.27;;;1.53;;
5333;SDS011;2689;50.954;7.116;2023-04-24T01:39:35;2.13;;;1.50;;
5333;SDS011;2689;50.954;7.116;2023-04-24T01:42:02;2.40;;;1.30;;
5333;SDS011;2689;50.954;7.116;2023-04-24T01:44:28;1.80;;;1.13;;
5333;SDS011;2689;50.954;7.116;2023-04-24T01:46:56;2.10;;;1.50;;
5333;SDS011;2689;50.954;7.116;2023-04-24T01:49:23;1.67;;;1.07;;
5333;SDS011;2689;50.954;7.116;2023-04-24T01:51:50;1.83;;;1.37;;
5333;SDS011;2689;50.954;7.116;2023-04-24T01:54:17;3.80;;;2.03;;
5333;SDS011;2689;50.954;7.116;2023-04-24T01:56:45;2.33;;;1.70;;
5333;SDS011;2689;50.954;7.116;2023-04-24T01:59:13;3.00;;;1.93;;
5333;SDS011;2689;50.954;7.116;2023-04-24T02:01:41;4.97;;;1.77;;
5333;SDS011;2689;50.954;7.116;2023-04-24T02:04:08;2.83;;;1.70;;
5333;SDS011;2689;50.954;7.116;2023-04-24T02:06:35;1.90;;;1.63;;
5333;SDS011;2689;50.954;7.116;2023-04-24T02:09:02;3.30;;;2.03;;
5333;SDS011;2689;50.954;7.116;2023-04-24T02:11:29;3.97;;;2.30;;
5333;SDS011;2689;50.954;7.116;2023-04-24T02:13:57;3.50;;;2.83;;
5333;SDS011;2689;50.954;7.116;2023-04-24T02:16:25;4.40;;;3.40;;
5333;SDS011;2689;50.954;7.116;2023-04-24T02:18:52;4.77;;;3.03;;
5333;SDS011;2689;50.954;7.116;2023-04-24T02:21:21;3.63;;;2.90;;
5333;SDS011;2689;50.954;7.116;2023-04-24T02:23:48;4.17;;;2.97;;
5333;SDS011;2689;50.954;7.116;2023-04-24T02:26:15;5.47;;;3.40;;
5333;SDS011;2689;50.954;7.116;2023-04-24T02:28:42;5.23;;;3.13;;
5333;SDS011;2689;50.954;7.116;2023-04-24T02:31:10;3.50;;;3.03;;
5333;SDS011;2689;50.954;7.116;2023-04-24T02:33:37;3.33;;;2.97;;
5333;SDS011;2689;50.954;7.116;2023-04-24T02:36:04;5.43;;;3.17;;
5333;SDS011;2689;50.954;7.116;2023-04-24T02:38:31;3.43;;;3.00;;
5333;SDS011;2689;50.954;7.116;2023-04-24T02:40:58;4.20;;;3.40;;
5333;SDS011;2689;50.954;7.116;2023-04-24T02:43:25;5.07;;;3.97;;
5333;SDS011;2689;50.954;7.116;2023-04-24T02:45:52;5.40;;;3.67;;
5333;SDS011;2689;50.954;7.116;2023-04-24T02:48:20;4.73;;;3.57;;
5333;SDS011;2689;50.954;7.116;2023-04-24T02:50:47;4.20;;;3.60;;
5333;SDS011;2689;50.954;7.116;2023-04-24T02:53:14;4.60;;;3.50;;
5333;SDS011;2689;50.954;7.116;2023-04-24T02:55:41;4.50;;;3.93;;
5333;SDS011;2689;50.954;7.116;2023-04-24T02:58:07;5.03;;;3.70;;
5333;SDS011;2689;50.954;7.116;2023-04-24T03:00:35;4.93;;;3.90;;
5333;SDS011;2689;50.954;7.116;2023-04-24T03:03:02;5.50;;;4.50;;
5333;SDS011;2689;50.954;7.116;2023-04-24T03:05:30;11.23;;;4.30;;
5333;SDS011;2689;50.954;7.116;2023-04-24T03:07:57;5.20;;;4.40;;
5333;SDS011;2689;50.954;7.116;2023-04-24T03:10:24;6.43;;;4.80;;
5333;SDS011;2689;50.954;7.116;2023-04-24T03:12:51;6.47;;;4.80;;
5333;SDS011;2689;50.954;7.116;2023-04-24T03:15:17;6.03;;;4.20;;
5333;SDS011;2689;50.954;7.116;2023-04-24T03:17:44;6.33;;;4.30;;
5333;SDS011;2689;50.954;7.116;2023-04-24T03:20:11;5.00;;;3.80;;
5333;SDS011;2689;50.954;7.116;2023-04-24T03:22:39;6.30;;;5.13;;
5333;SDS011;2689;50.954;7.116;2023-04-24T03:25:06;6.83;;;4.70;;
5333;SDS011;2689;50.954;7.116;2023-04-24T03:27:34;7.50;;;6.00;;
5333;SDS011;2689;50.954;7.116;2023-04-24T03:30:01;5.37;;;4.10;;
5333;SDS011;2689;50.954;7.116;2023-04-24T03:32:28;5.90;;;4.40;;
5333;SDS011;2689;50.954;7.116;2023-04-24T03:34:55;5.30;;;4.57;;
5333;SDS011;2689;50.954;7.116;2023-04-24T03:37:22;5.60;;;5.00;;
5333;SDS011;2689;50.954;7.116;2023-04-24T03:39:50;4.83;;;3.17;;
5333;SDS011;2689;50.954;7.116;2023-04-24T03:42:17;7.43;;;4.90;;
5333;SDS011;2689;50.954;7.116;2023-04-24T03:44:44;6.67;;;4.53;;
5333;SDS011;2689;50.954;7.116;2023-04-24T03:47:10;6.33;;;4.57;;
5333;SDS011;2689;50.954;7.116;2023-04-24T03:49:37;7.30;;;4.17;;
5333;SDS011;2689;50.954;7.116;2023-04-24T03:52:04;6.00;;;4.60;;
5333;SDS011;2689;50.954;7.116;2023-04-24T03:54:30;7.30;;;5.00;;
5333;SDS011;2689;50.954;7.116;2023-04-24T03:56:58;8.00;;;4.10;;
5333;SDS011;2689;50.954;7.116;2023-04-24T03:59:26;6.40;;;5.20;;
5333;SDS011;2689;50.954;7.116;2023-04-24T04:01:53;7.23;;;5.03;;
5333;SDS011;2689;50.954;7.116;2023-04-24T04:04:21;6.30;;;4.57;;
5333;SDS011;2689;50.954;7.116;2023-04-24T04:06:47;7.73;;;5.33;;
5333;SDS011;2689;50.954;7.116;2023-04-24T04:09:14;7.40;;;5.73;;
5333;SDS011;2689;50.954;7.116;2023-04-24T04:11:41;5.17;;;4.50;;
5333;SDS011;2689;50.954;7.116;2023-04-24T04:14:09;4.83;;;4.33;;
5333;SDS011;2689;50.954;7.116;2023-04-24T04:16:36;7.77;;;4.10;;
5333;SDS011;2689;50.954;7.116;2023-04-24T04:19:02;5.73;;;4.93;;
5333;SDS011;2689;50.954;7.116;2023-04-24T04:21:30;6.23;;;4.10;;
5333;SDS011;2689;50.954;7.116;2023-04-24T04:23:57;6.20;;;4.00;;
5333;SDS011;2689;50.954;7.116;2023-04-24T04:26:24;5.50;;;4.63;;
5333;SDS011;2689;50.954;7.116;2023-04-24T04:28:52;5.40;;;4.40;;
5333;SDS011;2689;50.954;7.116;2023-04-24T04:31:20;4.70;;;3.87;;
5333;SDS011;2689;50.954;7.116;2023-04-24T04:33:48;4.17;;;3.63;;
5333;SDS011;2689;50.954;7.116;2023-04-24T04:36:15;4.27;;;3.50;;
5333;SDS011;2689;50.954;7.116;2023-04-24T04:38:42;4.77;;;4.10;;
5333;SDS011;2689;50.954;7.116;2023-04-24T04:41:09;4.97;;;3.90;;
5333;SDS011;2689;50.954;7.116;2023-04-24T04:43:36;5.73;;;4.67;;
5333;SDS011;2689;50.954;7.116;2023-04-24T04:46:05;4.73;;;3.93;;
5333;SDS011;2689;50.954;7.116;2023-04-24T04:48:35;6.43;;;3.63;;
5333;SDS011;2689;50.954;7.116;2023-04-24T04:51:02;5.27;;;4.40;;
5333;SDS011;2689;50.954;7.116;2023-04-24T04:53:29;4.90;;;4.00;;
5333;SDS011;2689;50.954;7.116;2023-04-24T04:55:58;6.23;;;4.40;;
5333;SDS011;2689;50.954;7.116;2023-04-24T04:58:25;5.23;;;3.77;;
5333;SDS011;2689;50.954;7.116;2023-04-24T05:00:52;6.70;;;4.33;;
5333;SDS011;2689;50.954;7.116;2023-04-24T05:03:19;5.13;;;3.40;;
5333;SDS011;2689;50.954;7.116;2023-04-24T05:05:47;6.10;;;3.87;;
5333;SDS011;2689;50.954;7.116;2023-04-24T05:08:14;6.37;;;3.90;;
5333;SDS011;2689;50.954;7.116;2023-04-24T05:10:41;4.10;;;3.63;;
5333;SDS011;2689;50.954;7.116;2023-04-24T05:13:15;4.90;;;4.07;;
5333;SDS011;2689;50.954;7.116;2023-04-24T05:15:42;4.00;;;3.53;;
5333;SDS011;2689;50.954;7.116;2023-04-24T05:18:08;7.10;;;4.23;;
5333;SDS011;2689;50.954;7.116;2023-04-24T05:20:35;4.43;;;4.00;;
5333;SDS011;2689;50.954;7.116;2023-04-24T05:23:04;6.60;;;4.20;;
5333;SDS011;2689;50.954;7.116;2023-04-24T05:25:30;6.03;;;5.30;;
5333;SDS011;2689;50.954;7.116;2023-04-24T05:28:00;8.13;;;3.90;;
5333;SDS011;2689;50.954;7.116;2023-04-24T05:30:27;5.93;;;4.40;;
5333;SDS011;2689;50.954;7.116;2023-04-24T05:32:53;6.00;;;3.90;;
5333;SDS011;2689;50.954;7.116;2023-04-24T05:35:20;6.83;;;4.27;;
5333;SDS011;2689;50.954;7.116;2023-04-24T05:37:47;8.67;;;5.00;;
5333;SDS011;2689;50.954;7.116;2023-04-24T05:40:15;6.03;;;4.67;;
5333;SDS011;2689;50.954;7.116;2023-04-24T05:42:42;9.70;;;4.83;;
5333;SDS011;2689;50.954;7.116;2023-04-24T05:45:09;5.70;;;4.13;;
5333;SDS011;2689;50.954;7.116;2023-04-24T05:47:41;5.67;;;3.87;;
5333;SDS011;2689;50.954;7.116;2023-04-24T05:50:08;6.43;;;4.30;;
5333;SDS011;2689;50.954;7.116;2023-04-24T05:52:35;4.33;;;3.90;;
5333;SDS011;2689;50.954;7.116;2023-04-24T05:55:02;6.00;;;4.40;;
5333;SDS011;2689;50.954;7.116;2023-04-24T05:57:31;4.60;;;4.10;;
5333;SDS011;2689;50.954;7.116;2023-04-24T05:59:58;5.60;;;4.50;;
5333;SDS011;2689;50.954;7.116;2023-04-24T06:02:25;7.30;;;4.70;;
5333;SDS011;2689;50.954;7.116;2023-04-24T06:04:52;5.50;;;4.70;;
5333;SDS011;2689;50.954;7.116;2023-04-24T06:07:20;7.27;;;6.20;;
5333;SDS011;2689;50.954;7.116;2023-04-24T06:09:47;9.67;;;4.80;;
5333;SDS011;2689;50.954;7.116;2023-04-24T06:12:14;5.87;;;4.97;;
5333;SDS011;2689;50.954;7.116;2023-04-24T06:14:42;7.13;;;5.40;;
5333;SDS011;2689;50.954;7.116;2023-04-24T06:17:09;6.87;;;5.60;;
5333;SDS011;2689;50.954;7.116;2023-04-24T06:19:38;8.00;;;6.30;;
5333;SDS011;2689;50.954;7.116;2023-04-24T06:22:05;8.60;;;5.07;;
5333;SDS011;2689;50.954;7.116;2023-04-24T06:24:33;6.40;;;4.93;;
5333;SDS011;2689;50.954;7.116;2023-04-24T06:27:00;10.73;;;5.87;;
5333;SDS011;2689;50.954;7.116;2023-04-24T06:29:27;8.90;;;5.50;;
5333;SDS011;2689;50.954;7.116;2023-04-24T06:31:55;8.57;;;4.90;;
5333;SDS011;2689;50.954;7.116;2023-04-24T06:34:22;8.07;;;5.33;;
5333;SDS011;2689;50.954;7.116;2023-04-24T06:36:49;9.53;;;6.20;;
5333;SDS011;2689;50.954;7.116;2023-04-24T06:39:17;11.80;;;5.40;;
5333;SDS011;2689;50.954;7.116;2023-04-24T06:41:46;7.30;;;5.93;;
5333;SDS011;2689;50.954;7.116;2023-04-24T06:44:13;9.30;;;6.37;;
5333;SDS011;2689;50.954;7.116;2023-04-24T06:46:40;10.70;;;5.73;;
5333;SDS011;2689;50.954;7.116;2023-04-24T06:49:09;6.27;;;5.30;;
5333;SDS011;2689;50.954;7.116;2023-04-24T06:51:35;9.97;;;7.10;;
5333;SDS011;2689;50.954;7.116;2023-04-24T06:54:02;9.50;;;6.93;;
5333;SDS011;2689;50.954;7.116;2023-04-24T06:56:29;10.40;;;5.80;;
5333;SDS011;2689;50.954;7.116;2023-04-24T06:58:57;5.73;;;4.53;;
5333;SDS011;2689;50.954;7.116;2023-04-24T07:01:23;7.83;;;5.80;;
5333;SDS011;2689;50.954;7.116;2023-04-24T07:03:50;5.97;;;3.97;;
5333;SDS011;2689;50.954;7.116;2023-04-24T07:06:18;5.70;;;3.80;;
5333;SDS011;2689;50.954;7.116;2023-04-24T07:08:47;6.73;;;4.67;;
5333;SDS011;2689;50.954;7.116;2023-04-24T07:11:14;6.30;;;5.07;;
5333;SDS011;2689;50.954;7.116;2023-04-24T07:13:41;6.50;;;4.00;;
5333;SDS011;2689;50.954;7.116;2023-04-24T07:16:09;6.70;;;4.03;;
5333;SDS011;2689;50.954;7.116;2023-04-24T07:18:36;7.60;;;4.40;;
5333;SDS011;2689;50.954;7.116;2023-04-24T07:21:03;6.27;;;4.20;;
5333;SDS011;2689;50.954;7.116;2023-04-24T07:23:31;7.17;;;3.67;;
5333;SDS011;2689;50.954;7.116;2023-04-24T07:25:58;8.53;;;3.80;;
5333;SDS011;2689;50.954;7.116;2023-04-24T07:28:25;3.20;;;2.80;;
5333;SDS011;2689;50.954;7.116;2023-04-24T07:30:52;4.20;;;3.10;;
5333;SDS011;2689;50.954;7.116;2023-04-24T07:33:19;4.10;;;3.33;;
5333;SDS011;2689;50.954;7.116;2023-04-24T07:35:45;5.13;;;3.00;;
5333;SDS011;2689;50.954;7.116;2023-04-24T07:38:12;3.30;;;2.87;;
5333;SDS011;2689;50.954;7.116;2023-04-24T07:40:40;3.10;;;2.80;;
5333;SDS011;2689;50.954;7.116;2023-04-24T07:43:07;3.17;;;2.57;;
5333;SDS011;2689;50.954;7.116;2023-04-24T07:45:34;4.07;;;3.03;;
5333;SDS011;2689;50.954;7.116;2023-04-24T07:48:02;3.50;;;2.80;;
5333;SDS011;2689;50.954;7.116;2023-04-24T07:50:29;3.60;;;2.50;;
5333;SDS011;2689;50.954;7.116;2023-04-24T07:52:56;4.07;;;2.10;;
5333;SDS011;2689;50.954;7.116;2023-04-24T07:55:23;1.80;;;1.20;;
5333;SDS011;2689;50.954;7.116;2023-04-24T07:57:51;1.90;;;1.40;;
5333;SDS011;2689;50.954;7.116;2023-04-24T08:00:18;2.50;;;1.80;;
5333;SDS011;2689;50.954;7.116;2023-04-24T08:02:46;1.73;;;1.40;;
5333;SDS011;2689;50.954;7.116;2023-04-24T08:05:12;1.80;;;1.40;;
5333;SDS011;2689;50.954;7.116;2023-04-24T08:07:39;4.10;;;2.97;;
5333;SDS011;2689;50.954;7.116;2023-04-24T08:10:07;3.00;;;1.70;;
5333;SDS011;2689;50.954;7.116;2023-04-24T08:12:35;2.10;;;1.50;;
5333;SDS011;2689;50.954;7.116;2023-04-24T08:15:04;3.33;;;1.80;;
5333;SDS011;2689;50.954;7.116;2023-04-24T08:17:32;2.10;;;1.47;;
5333;SDS011;2689;50.954;7.116;2023-04-24T08:20:00;4.70;;;1.77;;
5333;SDS011;2689;50.954;7.116;2023-04-24T08:22:27;4.40;;;1.80;;
5333;SDS011;2689;50.954;7.116;2023-04-24T08:24:54;2.17;;;1.60;;
5333;SDS011;2689;50.954;7.116;2023-04-24T08:27:22;3.00;;;1.63;;
5333;SDS011;2689;50.954;7.116;2023-04-24T08:29:49;1.70;;;1.30;;
5333;SDS011;2689;50.954;7.116;2023-04-24T08:32:17;3.33;;;1.40;;
5333;SDS011;2689;50.954;7.116;2023-04-24T08:34:43;2.10;;;1.70;;
5333;SDS011;2689;50.954;7.116;2023-04-24T08:37:10;1.70;;;1.57;;
5333;SDS011;2689;50.954;7.116;2023-04-24T08:39:37;1.60;;;1.20;;
5333;SDS011;2689;50.954;7.116;2023-04-24T08:42:04;2.13;;;1.93;;
5333;SDS011;2689;50.954;7.116;2023-04-24T08:44:33;1.60;;;1.23;;
5333;SDS011;2689;50.954;7.116;2023-04-24T08:47:01;2.40;;;1.77;;
5333;SDS011;2689;50.954;7.116;2023-04-24T08:49:29;2.83;;;2.00;;
5333;SDS011;2689;50.954;7.116;2023-04-24T08:51:57;2.80;;;1.90;;
5333;SDS011;2689;50.954;7.116;2023-04-24T08:54:24;2.47;;;1.97;;
5333;SDS011;2689;50.954;7.116;2023-04-24T08:56:59;1.90;;;1.20;;
5333;SDS011;2689;50.954;7.116;2023-04-24T08:59:28;3.40;;;2.10;;
5333;SDS011;2689;50.954;7.116;2023-04-24T09:01:56;3.13;;;1.87;;
5333;SDS011;2689;50.954;7.116;2023-04-24T09:04:24;2.47;;;1.90;;
5333;SDS011;2689;50.954;7.116;2023-04-24T09:06:52;5.10;;;2.60;;
5333;SDS011;2689;50.954;7.116;2023-04-24T09:09:23;4.70;;;3.13;;
5333;SDS011;2689;50.954;7.116;2023-04-24T09:11:50;2.83;;;1.93;;
5333;SDS011;2689;50.954;7.116;2023-04-24T09:14:20;2.70;;;2.50;;
5333;SDS011;2689;50.954;7.116;2023-04-24T09:16:50;3.67;;;2.90;;
5333;SDS011;2689;50.954;7.116;2023-04-24T09:19:17;3.60;;;2.70;;
5333;SDS011;2689;50.954;7.116;2023-04-24T09:21:45;5.07;;;3.37;;
5333;SDS011;2689;50.954;7.116;2023-04-24T09:24:16;3.60;;;3.10;;
5333;SDS011;2689;50.954;7.116;2023-04-24T09:26:48;5.70;;;4.13;;
5333;SDS011;2689;50.954;7.116;2023-04-24T09:29:22;5.47;;;4.20;;
5333;SDS011;2689;50.954;7.116;2023-04-24T09:31:49;6.33;;;5.03;;
5333;SDS011;2689;50.954;7.116;2023-04-24T09:34:23;6.10;;;5.00;;
5333;SDS011;2689;50.954;7.116;2023-04-24T09:36:51;8.17;;;6.07;;
5333;SDS011;2689;50.954;7.116;2023-04-24T09:39:20;5.97;;;5.20;;
5333;SDS011;2689;50.954;7.116;2023-04-24T09:41:48;9.13;;;7.07;;
5333;SDS011;2689;50.954;7.116;2023-04-24T09:44:16;7.53;;;6.23;;
5333;SDS011;2689;50.954;7.116;2023-04-24T09:46:45;11.23;;;6.50;;
5333;SDS011;2689;50.954;7.116;2023-04-24T09:49:16;6.33;;;5.13;;
5333;SDS011;2689;50.954;7.116;2023-04-24T09:51:47;7.50;;;5.70;;
5333;SDS011;2689;50.954;7.116;2023-04-24T09:54:15;11.63;;;7.67;;
5333;SDS011;2689;50.954;7.116;2023-04-24T09:56:44;10.30;;;7.13;;
5333;SDS011;2689;50.954;7.116;2023-04-24T09:59:13;10.87;;;8.33;;
5333;SDS011;2689;50.954;7.116;2023-04-24T10:01:40;9.77;;;7.93;;
5333;SDS011;2689;50.954;7.116;2023-04-24T10:04:18;11.80;;;8.83;;
5333;SDS011;2689;50.954;7.116;2023-04-24T10:06:46;11.07;;;5.93;;
5333;SDS011;2689;50.954;7.116;2023-04-24T10:09:26;10.40;;;6.57;;
5333;SDS011;2689;50.954;7.116;2023-04-24T10:11:54;14.63;;;8.77;;
5333;SDS011;2689;50.954;7.116;2023-04-24T10:14:24;13.40;;;8.97;;
5333;SDS011;2689;50.954;7.116;2023-04-24T10:16:52;17.80;;;10.73;;
5333;SDS011;2689;50.954;7.116;2023-04-24T10:19:21;11.07;;;8.07;;
5333;SDS011;2689;50.954;7.116;2023-04-24T10:21:52;13.33;;;7.83;;
5333;SDS011;2689;50.954;7.116;2023-04-24T10:24:20;17.23;;;10.77;;
5333;SDS011;2689;50.954;7.116;2023-04-24T10:26:48;14.10;;;10.60;;
5333;SDS011;2689;50.954;7.116;2023-04-24T10:29:18;20.70;;;10.90;;
5333;SDS011;2689;50.954;7.116;2023-04-24T10:31:46;13.53;;;9.60;;
5333;SDS011;2689;50.954;7.116;2023-04-24T10:34:14;9.50;;;7.20;;
5333;SDS011;2689;50.954;7.116;2023-04-24T10:36:44;16.10;;;8.17;;
5333;SDS011;2689;50.954;7.116;2023-04-24T10:39:15;13.53;;;9.00;;
5333;SDS011;2689;50.954;7.116;2023-04-24T10:41:43;18.20;;;13.17;;
5333;SDS011;2689;50.954;7.116;2023-04-24T10:44:11;10.70;;;6.80;;
5333;SDS011;2689;50.954;7.116;2023-04-24T10:46:44;12.57;;;8.27;;
5333;SDS011;2689;50.954;7.116;2023-04-24T10:49:12;12.73;;;6.90;;
5333;SDS011;2689;50.954;7.116;2023-04-24T10:51:46;11.80;;;7.43;;
5333;SDS011;2689;50.954;7.116;2023-04-24T10:54:23;12.17;;;7.87;;
5333;SDS011;2689;50.954;7.116;2023-04-24T10:56:52;15.60;;;7.07;;
5333;SDS011;2689;50.954;7.116;2023-04-24T10:59:23;9.67;;;5.73;;
5333;SDS011;2689;50.954;7.116;2023-04-24T11:01:53;15.60;;;6.03;;
5333;SDS011;2689;50.954;7.116;2023-04-24T11:04:30;5.57;;;3.33;;
5333;SDS011;2689;50.954;7.116;2023-04-24T11:06:57;18.70;;;7.33;;
5333;SDS011;2689;50.954;7.116;2023-04-24T11:09:26;12.07;;;7.00;;
5333;SDS011;2689;50.954;7.116;2023-04-24T11:12:02;17.60;;;6.77;;
5333;SDS011;2689;50.954;7.116;2023-04-24T11:17:30;10.63;;;6.90;;
5333;SDS011;2689;50.954;7.116;2023-04-24T11:20:01;9.00;;;5.30;;
5333;SDS011;2689;50.954;7.116;2023-04-24T11:22:32;9.07;;;5.47;;
5333;SDS011;2689;50.954;7.116;2023-04-24T11:25:00;4.33;;;2.80;;
5333;SDS011;2689;50.954;7.116;2023-04-24T11:27:29;12.10;;;5.40;;
5333;SDS011;2689;50.954;7.116;2023-04-24T11:30:00;8.67;;;4.47;;
5333;SDS011;2689;50.954;7.116;2023-04-24T11:32:33;9.47;;;5.30;;
5333;SDS011;2689;50.954;7.116;2023-04-24T11:35:02;11.53;;;5.10;;
5333;SDS011;2689;50.954;7.116;2023-04-24T11:37:33;16.63;;;5.73;;
5333;SDS011;2689;50.954;7.116;2023-04-24T11:40:01;14.10;;;5.60;;
5333;SDS011;2689;50.954;7.116;2023-04-24T11:42:33;11.47;;;5.30;;
5333;SDS011;2689;50.954;7.116;2023-04-24T11:45:00;21.30;;;7.10;;
5333;SDS011;2689;50.954;7.116;2023-04-24T11:47:28;13.53;;;6.90;;
5333;SDS011;2689;50.954;7.116;2023-04-24T11:49:59;18.63;;;6.57;;
5333;SDS011;2689;50.954;7.116;2023-04-24T11:52:26;0.90;;;0.60;;
5333;SDS011;2689;50.954;7.116;2023-04-24T11:54:53;36.10;;;10.13;;
5333;SDS011;2689;50.954;7.116;2023-04-24T11:57:20;44.40;;;19.33;;
5333;SDS011;2689;50.954;7.116;2023-04-24T11:59:47;31.53;;;15.37;;
5333;SDS011;2689;50.954;7.116;2023-04-24T12:02:21;42.40;;;18.87;;
5333;SDS011;2689;50.954;7.116;2023-04-24T12:04:49;46.70;;;21.57;;
5333;SDS011;2689;50.954;7.116;2023-04-24T12:07:16;37.87;;;20.13;;
5333;SDS011;2689;50.954;7.116;2023-04-24T12:09:43;35.07;;;20.00;;
5333;SDS011;2689;50.954;7.116;2023-04-24T12:12:12;49.00;;;18.90;;
5333;SDS011;2689;50.954;7.116;2023-04-24T12:14:43;48.17;;;20.53;;
5333;SDS011;2689;50.954;7.116;2023-04-24T12:17:11;39.77;;;21.83;;
5333;SDS011;2689;50.954;7.116;2023-04-24T12:19:38;48.93;;;21.83;;
5333;SDS011;2689;50.954;7.116;2023-04-24T12:22:13;66.83;;;28.30;;
5333;SDS011;2689;50.954;7.116;2023-04-24T12:24:59;48.43;;;23.50;;
5333;SDS011;2689;50.954;7.116;2023-04-24T12:27:30;53.50;;;25.37;;
5333;SDS011;2689;50.954;7.116;2023-04-24T12:29:58;50.53;;;29.17;;
5333;SDS011;2689;50.954;7.116;2023-04-24T12:32:25;51.17;;;23.07;;
5333;SDS011;2689;50.954;7.116;2023-04-24T12:34:52;58.77;;;28.53;;
5333;SDS011;2689;50.954;7.116;2023-04-24T12:37:21;61.13;;;29.40;;
5333;SDS011;2689;50.954;7.116;2023-04-24T12:39:59;35.03;;;23.30;;
5333;SDS011;2689;50.954;7.116;2023-04-24T12:42:27;43.53;;;22.57;;
5333;SDS011;2689;50.954;7.116;2023-04-24T12:44:56;34.83;;;19.80;;
5333;SDS011;2689;50.954;7.116;2023-04-24T12:47:25;46.23;;;23.17;;
5333;SDS011;2689;50.954;7.116;2023-04-24T12:49:52;25.43;;;9.70;;
5333;SDS011;2689;50.954;7.116;2023-04-24T12:52:21;18.23;;;12.10;;
5333;SDS011;2689;50.954;7.116;2023-04-24T12:54:49;27.03;;;14.20;;
5333;SDS011;2689;50.954;7.116;2023-04-24T12:57:17;21.83;;;11.27;;
5333;SDS011;2689;50.954;7.116;2023-04-24T12:59:44;22.27;;;12.10;;
5333;SDS011;2689;50.954;7.116;2023-04-24T13:02:11;29.70;;;17.60;;
5333;SDS011;2689;50.954;7.116;2023-04-24T13:04:39;26.60;;;16.27;;
5333;SDS011;2689;50.954;7.116;2023-04-24T13:07:06;12.23;;;5.83;;
5333;SDS011;2689;50.954;7.116;2023-04-24T13:09:34;23.30;;;13.60;;
5333;SDS011;2689;50.954;7.116;2023-04-24T13:12:02;16.53;;;9.90;;
5333;SDS011;2689;50.954;7.116;2023-04-24T13:14:30;29.50;;;15.30;;
5333;SDS011;2689;50.954;7.116;2023-04-24T13:16:58;25.63;;;12.60;;
5333;SDS011;2689;50.954;7.116;2023-04-24T13:19:25;19.53;;;11.77;;
5333;SDS011;2689;50.954;7.116;2023-04-24T13:21:52;36.13;;;13.80;;
5333;SDS011;2689;50.954;7.116;2023-04-24T13:24:20;23.63;;;13.70;;
5333;SDS011;2689;50.954;7.116;2023-04-24T13:26:52;18.77;;;12.00;;
5333;SDS011;2689;50.954;7.116;2023-04-24T13:29:19;14.27;;;9.63;;
5333;SDS011;2689;50.954;7.116;2023-04-24T13:31:46;19.30;;;13.30;;
5333;SDS011;2689;50.954;7.116;2023-04-24T13:34:14;18.77;;;8.10;;
5333;SDS011;2689;50.954;7.116;2023-04-24T13:36:41;14.20;;;10.50;;
5333;SDS011;2689;50.954;7.116;2023-04-24T13:39:08;22.17;;;5.93;;
5333;SDS011;2689;50.954;7.116;2023-04-24T13:41:35;31.33;;;9.90;;
5333;SDS011;2689;50.954;7.116;2023-04-24T13:44:04;15.07;;;9.70;;
5333;SDS011;2689;50.954;7.116;2023-04-24T13:46:32;8.37;;;6.80;;
5333;SDS011;2689;50.954;7.116;2023-04-24T13:48:59;12.73;;;6.90;;
5333;SDS011;2689;50.954;7.116;2023-04-24T13:51:28;10.67;;;6.60;;
5333;SDS011;2689;50.954;7.116;2023-04-24T13:53:55;15.63;;;7.60;;
5333;SDS011;2689;50.954;7.116;2023-04-24T13:56:22;10.53;;;7.23;;
5333;SDS011;2689;50.954;7.116;2023-04-24T13:58:49;8.07;;;4.37;;
5333;SDS011;2689;50.954;7.116;2023-04-24T14:01:17;10.97;;;7.30;;
5333;SDS011;2689;50.954;7.116;2023-04-24T14:03:45;10.73;;;5.47;;
5333;SDS011;2689;50.954;7.116;2023-04-24T14:06:12;9.33;;;5.87;;
5333;SDS011;2689;50.954;7.116;2023-04-24T14:08:39;12.83;;;7.07;;
5333;SDS011;2689;50.954;7.116;2023-04-24T14:11:06;14.57;;;7.27;;
5333;SDS011;2689;50.954;7.116;2023-04-24T14:13:35;9.20;;;5.07;;
5333;SDS011;2689;50.954;7.116;2023-04-24T14:16:03;6.13;;;4.80;;
5333;SDS011;2689;50.954;7.116;2023-04-24T14:18:34;9.83;;;7.10;;
5333;SDS011;2689;50.954;7.116;2023-04-24T14:21:01;10.00;;;5.47;;
5333;SDS011;2689;50.954;7.116;2023-04-24T14:23:28;10.50;;;5.47;;
5333;SDS011;2689;50.954;7.116;2023-04-24T14:25:55;11.03;;;5.50;;
5333;SDS011;2689;50.954;7.116;2023-04-24T14:28:23;8.47;;;5.37;;
5333;SDS011;2689;50.954;7.116;2023-04-24T14:30:50;6.70;;;4.57;;
5333;SDS011;2689;50.954;7.116;2023-04-24T14:33:17;8.90;;;5.30;;
5333;SDS011;2689;50.954;7.116;2023-04-24T14:35:45;10.60;;;7.13;;
5333;SDS011;2689;50.954;7.116;2023-04-24T14:38:12;13.47;;;5.10;;
5333;SDS011;2689;50.954;7.116;2023-04-24T14:40:40;12.37;;;7.17;;
5333;SDS011;2689;50.954;7.116;2023-04-24T14:43:07;6.13;;;5.50;;
5333;SDS011;2689;50.954;7.116;2023-04-24T14:45:34;9.03;;;5.33;;
5333;SDS011;2689;50.954;7.116;2023-04-24T14:48:00;10.17;;;6.50;;
5333;SDS011;2689;50.954;7.116;2023-04-24T14:50:27;13.17;;;5.93;;
5333;SDS011;2689;50.954;7.116;2023-04-24T14:52:57;4.90;;;3.97;;
5333;SDS011;2689;50.954;7.116;2023-04-24T14:55:24;10.13;;;5.50;;
5333;SDS011;2689;50.954;7.116;2023-04-24T14:57:51;5.97;;;4.57;;
5333;SDS011;2689;50.954;7.116;2023-04-24T15:00:18;12.50;;;5.50;;
5333;SDS011;2689;50.954;7.116;2023-04-24T15:02:48;6.50;;;4.73;;
5333;SDS011;2689;50.954;7.116;2023-04-24T15:05:15;11.50;;;5.50;;
5333;SDS011;2689;50.954;7.116;2023-04-24T15:07:42;6.73;;;4.73;;
5333;SDS011;2689;50.954;7.116;2023-04-24T15:10:10;8.63;;;4.50;;
5333;SDS011;2689;50.954;7.116;2023-04-24T15:12:39;9.37;;;4.53;;
5333;SDS011;2689;50.954;7.116;2023-04-24T15:15:07;7.30;;;4.43;;
5333;SDS011;2689;50.954;7.116;2023-04-24T15:17:37;17.93;;;9.43;;